createdAt,value
2023-02-07T00:02:07.204Z,7.63
2023-02-07T00:04:35.228Z,6.50
2023-02-07T00:07:02.097Z,6.87
2023-02-07T00:09:30.089Z,7.00
2023-02-07T00:12:02.567Z,7.23
2023-02-07T00:14:32.537Z,7.23
2023-02-07T00:16:59.595Z,7.30
2023-02-07T00:19:28.590Z,7.93
2023-02-07T00:21:55.548Z,7.63
2023-02-07T00:24:25.508Z,7.63
2023-02-07T00:26:55.651Z,7.27
2023-02-07T00:29:25.647Z,6.97
2023-02-07T00:31:53.563Z,7.67
2023-02-07T00:34:26.074Z,7.63
2023-02-07T00:36:56.096Z,7.10
2023-02-07T00:39:25.117Z,6.93
2023-02-07T00:41:55.202Z,5.77
2023-02-07T00:44:25.260Z,5.90
2023-02-07T00:46:59.805Z,7.23
2023-02-07T00:49:29.935Z,6.00
2023-02-07T00:52:01.362Z,5.97
2023-02-07T00:54:29.323Z,7.00
2023-02-07T00:57:03.640Z,7.17
2023-02-07T00:59:31.545Z,6.23
2023-02-07T01:02:01.473Z,6.97
2023-02-07T01:04:30.556Z,6.87
2023-02-07T01:07:00.458Z,6.63
2023-02-07T01:09:29.863Z,6.77
2023-02-07T01:11:58.953Z,6.83
2023-02-07T01:14:27.928Z,6.63
2023-02-07T01:16:57.101Z,5.93
2023-02-07T01:19:28.914Z,6.97
2023-02-07T01:21:59.744Z,7.03
2023-02-07T01:24:29.692Z,7.00
2023-02-07T01:26:59.645Z,7.83
2023-02-07T01:29:27.907Z,7.23
2023-02-07T01:31:56.923Z,6.70
2023-02-07T01:34:25.864Z,6.70
2023-02-07T01:36:54.898Z,7.27
2023-02-07T01:39:22.897Z,7.97
2023-02-07T01:41:49.833Z,9.00
2023-02-07T01:44:24.283Z,8.70
2023-02-07T01:46:55.220Z,7.43
2023-02-07T01:49:31.789Z,7.27
2023-02-07T01:52:06.604Z,7.80
2023-02-07T01:54:36.552Z,8.10
2023-02-07T01:57:09.755Z,8.13
2023-02-07T01:59:38.912Z,8.73
2023-02-07T02:02:07.863Z,7.87
2023-02-07T02:04:41.546Z,6.70
2023-02-07T02:07:16.179Z,7.40
2023-02-07T02:09:49.186Z,7.87
2023-02-07T02:12:41.437Z,7.10
2023-02-07T02:15:43.159Z,7.03
2023-02-07T02:18:28.837Z,7.47
2023-02-07T02:21:23.769Z,7.00
2023-02-07T02:24:01.672Z,7.50
2023-02-07T02:26:53.597Z,7.60
2023-02-07T02:29:52.574Z,7.13
2023-02-07T02:32:53.423Z,6.80
2023-02-07T02:35:42.447Z,7.83
2023-02-07T02:38:37.109Z,7.33
2023-02-07T02:41:18.740Z,8.23
2023-02-07T02:43:53.914Z,9.50
2023-02-07T02:46:25.185Z,8.53
2023-02-07T02:48:55.557Z,8.50
2023-02-07T02:51:28.242Z,9.23
2023-02-07T02:54:00.507Z,8.00
2023-02-07T02:56:56.532Z,9.43
2023-02-07T02:59:55.437Z,9.47
2023-02-07T03:03:03.413Z,10.60
2023-02-07T03:05:59.663Z,9.73
2023-02-07T03:08:41.693Z,11.00
2023-02-07T03:11:17.570Z,10.17
2023-02-07T03:13:54.238Z,10.10
2023-02-07T03:16:31.205Z,10.17
2023-02-07T03:19:09.902Z,11.07
2023-02-07T03:22:00.899Z,10.57
2023-02-07T03:24:33.167Z,11.27
2023-02-07T03:27:04.770Z,11.60
2023-02-07T03:29:37.677Z,9.70
2023-02-07T03:32:07.249Z,8.53
2023-02-07T03:35:01.918Z,9.43
2023-02-07T03:38:06.527Z,8.80
2023-02-07T03:40:58.740Z,7.33
2023-02-07T03:43:32.287Z,6.37
2023-02-07T03:46:01.605Z,7.00
2023-02-07T03:48:34.485Z,7.47
2023-02-07T03:51:03.560Z,6.70
2023-02-07T03:53:33.684Z,6.53
2023-02-07T03:56:01.699Z,5.93
2023-02-07T03:58:36.871Z,7.00
2023-02-07T04:01:05.032Z,6.93
2023-02-07T04:03:33.040Z,6.63
2023-02-07T04:06:00.165Z,7.73
2023-02-07T04:08:27.127Z,6.47
2023-02-07T04:11:02.600Z,6.80
2023-02-07T04:13:33.245Z,7.13
2023-02-07T04:16:04.705Z,7.47
2023-02-07T04:18:34.815Z,7.83
2023-02-07T04:21:06.116Z,8.40
2023-02-07T04:23:38.058Z,7.60
2023-02-07T04:26:06.547Z,7.77
2023-02-07T04:28:33.527Z,7.87
2023-02-07T04:31:03.580Z,8.73
2023-02-07T04:33:36.686Z,7.93
2023-02-07T04:36:07.023Z,7.40
2023-02-07T04:38:37.225Z,9.17
2023-02-07T04:41:05.811Z,8.93
2023-02-07T04:43:38.849Z,8.43
2023-02-07T04:46:08.281Z,8.67
2023-02-07T04:48:38.540Z,9.33
2023-02-07T04:51:07.738Z,10.30
2023-02-07T04:53:37.751Z,10.20
2023-02-07T04:56:07.872Z,9.60
2023-02-07T04:58:38.217Z,10.23
2023-02-07T05:01:08.135Z,11.80
2023-02-07T05:03:37.190Z,11.67
2023-02-07T05:06:04.597Z,11.10
2023-02-07T05:08:31.564Z,10.20
2023-02-07T05:11:04.081Z,10.77
2023-02-07T05:13:34.357Z,10.83
2023-02-07T05:16:06.036Z,10.97
2023-02-07T05:18:36.026Z,10.87
2023-02-07T05:23:46.725Z,11.13
2023-02-07T05:26:15.017Z,11.37
2023-02-07T05:28:44.098Z,12.03
2023-02-07T05:31:12.137Z,13.57
2023-02-07T05:33:41.218Z,12.27
2023-02-07T05:36:08.901Z,12.33
2023-02-07T05:38:36.889Z,12.47
2023-02-07T05:41:03.993Z,12.77
2023-02-07T05:43:36.917Z,11.07
2023-02-07T05:46:05.059Z,12.10
2023-02-07T05:48:35.107Z,13.33
2023-02-07T05:51:02.092Z,13.47
2023-02-07T05:53:32.179Z,13.57
2023-02-07T05:56:05.394Z,13.73
2023-02-07T05:58:37.867Z,13.43
2023-02-07T06:01:05.216Z,13.97
2023-02-07T06:03:32.253Z,14.43
2023-02-07T06:06:00.319Z,15.20
2023-02-07T06:08:32.160Z,14.73
2023-02-07T06:11:05.486Z,14.97
2023-02-07T06:13:33.480Z,14.23
2023-02-07T06:16:00.615Z,14.47
2023-02-07T06:18:27.685Z,15.20
2023-02-07T06:20:54.635Z,14.90
2023-02-07T06:23:23.156Z,14.80
2023-02-07T06:25:53.304Z,14.07
2023-02-07T06:28:23.262Z,14.07
2023-02-07T06:30:53.542Z,14.57
2023-02-07T06:33:21.680Z,14.63
2023-02-07T06:35:48.654Z,15.57
2023-02-07T06:38:16.919Z,14.77
2023-02-07T06:40:48.365Z,15.90
2023-02-07T06:43:21.369Z,15.00
2023-02-07T06:45:50.385Z,15.37
2023-02-07T06:48:21.288Z,15.93
2023-02-07T06:50:54.782Z,16.43
2023-02-07T06:53:22.754Z,15.40
2023-02-07T06:55:51.036Z,16.33
2023-02-07T06:58:23.051Z,15.43
2023-02-07T07:00:54.091Z,16.33
2023-02-07T07:03:27.136Z,14.33
2023-02-07T07:06:00.702Z,16.50
2023-02-07T07:08:28.065Z,15.30
2023-02-07T07:10:58.866Z,15.63
2023-02-07T07:13:27.153Z,16.20
2023-02-07T07:15:54.235Z,16.03
2023-02-07T07:18:26.274Z,17.50
2023-02-07T07:20:59.234Z,17.87
2023-02-07T07:23:28.402Z,16.10
2023-02-07T07:25:57.835Z,17.27
2023-02-07T07:28:31.239Z,17.40
2023-02-07T07:31:08.430Z,16.57
2023-02-07T07:33:39.798Z,17.00
2023-02-07T07:36:08.924Z,16.63
2023-02-07T07:41:05.888Z,16.60
2023-02-07T07:43:32.981Z,15.20
2023-02-07T07:46:01.254Z,15.87
2023-02-07T07:48:29.586Z,15.17
2023-02-07T07:50:56.620Z,15.40
2023-02-07T07:53:23.763Z,14.93
2023-02-07T07:55:55.308Z,15.73
2023-02-07T07:58:26.106Z,14.13
2023-02-07T08:00:56.452Z,15.40
2023-02-07T08:03:26.497Z,15.07
2023-02-07T08:05:56.935Z,14.87
2023-02-07T08:08:27.225Z,16.03
2023-02-07T08:10:54.302Z,15.53
2023-02-07T08:13:22.624Z,15.43
2023-02-07T08:15:52.870Z,16.07
2023-02-07T08:18:23.739Z,16.73
2023-02-07T08:20:54.110Z,16.23
2023-02-07T08:23:22.712Z,15.87
2023-02-07T08:25:50.714Z,14.83
2023-02-07T08:28:19.730Z,14.13
2023-02-07T08:30:47.788Z,15.37
2023-02-07T08:33:17.416Z,15.03
2023-02-07T08:35:46.372Z,15.30
2023-02-07T08:38:16.468Z,15.43
2023-02-07T08:40:49.027Z,14.40
2023-02-07T08:43:17.062Z,14.13
2023-02-07T08:45:48.327Z,13.37
2023-02-07T08:48:16.538Z,13.90
2023-02-07T08:50:46.051Z,13.50
2023-02-07T08:53:14.062Z,14.38
2023-02-07T08:55:44.398Z,14.07
2023-02-07T08:58:12.456Z,12.83
2023-02-07T09:00:40.903Z,13.85
2023-02-07T09:03:12.408Z,13.27
2023-02-07T09:05:42.792Z,14.43
2023-02-07T09:08:15.401Z,14.32
2023-02-07T09:10:42.920Z,14.93
2023-02-07T09:13:13.235Z,14.10
2023-02-07T09:15:43.375Z,14.55
2023-02-07T09:18:10.372Z,14.18
2023-02-07T09:20:38.738Z,13.93
2023-02-07T09:23:19.387Z,14.48
2023-02-07T09:25:50.088Z,15.50
2023-02-07T09:28:22.328Z,14.82
2023-02-07T09:30:50.281Z,15.10
2023-02-07T09:33:18.730Z,15.93
2023-02-07T09:35:47.459Z,14.57
2023-02-07T09:38:24.090Z,13.57
2023-02-07T09:40:52.755Z,13.45
2023-02-07T09:43:51.177Z,13.02
2023-02-07T09:46:49.373Z,13.07
2023-02-07T09:49:31.995Z,12.57
2023-02-07T09:52:00.998Z,13.65
2023-02-07T09:54:43.440Z,12.73
2023-02-07T09:57:38.052Z,13.90
2023-02-07T10:00:37.494Z,13.25
2023-02-07T10:03:23.309Z,12.80
2023-02-07T10:06:12.826Z,12.77
2023-02-07T10:08:55.179Z,12.52
2023-02-07T10:11:31.484Z,12.88
2023-02-07T10:14:22.229Z,12.25
2023-02-07T10:17:03.194Z,13.90
2023-02-07T10:20:09.480Z,15.35
2023-02-07T10:23:16.414Z,12.68
2023-02-07T10:25:53.515Z,10.45
2023-02-07T10:28:41.668Z,12.32
2023-02-07T10:31:18.822Z,12.98
2023-02-07T10:34:15.548Z,12.40
2023-02-07T10:36:47.616Z,13.25
2023-02-07T10:39:39.708Z,11.85
2023-02-07T10:42:15.643Z,11.32
2023-02-07T10:44:44.768Z,11.43
2023-02-07T10:47:18.557Z,12.38
2023-02-07T10:49:48.741Z,13.63
2023-02-07T10:52:43.216Z,13.50
2023-02-07T10:55:14.070Z,13.45
2023-02-07T10:57:59.767Z,13.80
2023-02-07T11:00:36.753Z,11.55
2023-02-07T11:03:08.581Z,13.32
2023-02-07T11:05:41.736Z,12.27
2023-02-07T11:08:32.720Z,12.77
2023-02-07T11:11:26.067Z,13.15
2023-02-07T11:14:05.538Z,11.98
2023-02-07T11:16:37.836Z,12.73
2023-02-07T11:19:07.792Z,12.20
2023-02-07T11:21:43.585Z,13.95
2023-02-07T11:24:19.461Z,13.95
2023-02-07T11:27:03.381Z,14.52
2023-02-07T11:29:36.462Z,13.25
2023-02-07T11:32:05.765Z,12.23
2023-02-07T11:34:41.848Z,12.25
2023-02-07T11:37:32.636Z,12.02
2023-02-07T11:40:26.905Z,13.55
2023-02-07T11:43:18.729Z,13.32
2023-02-07T11:46:00.022Z,14.15
2023-02-07T11:48:35.577Z,12.27
2023-02-07T11:51:06.650Z,13.57
2023-02-07T11:53:39.431Z,13.27
2023-02-07T11:56:08.252Z,11.57
2023-02-07T11:58:42.012Z,12.13
2023-02-07T12:01:18.260Z,12.50
2023-02-07T12:04:00.946Z,13.57
2023-02-07T12:06:44.891Z,12.70
2023-02-07T12:09:33.593Z,13.03
2023-02-07T12:12:05.738Z,13.73
2023-02-07T12:14:54.937Z,11.50
2023-02-07T12:17:53.366Z,11.13
2023-02-07T12:20:24.406Z,10.77
2023-02-07T12:23:21.550Z,12.63
2023-02-07T12:26:01.475Z,10.90
2023-02-07T12:29:04.037Z,12.37
2023-02-07T12:31:44.320Z,12.03
2023-02-07T12:34:39.337Z,12.17
2023-02-07T12:37:18.209Z,12.17
2023-02-07T12:40:39.084Z,11.97
2023-02-07T12:43:12.884Z,13.13
2023-02-07T12:45:47.113Z,12.77
2023-02-07T12:48:53.567Z,13.37
2023-02-07T12:51:52.322Z,12.13
2023-02-07T12:54:46.504Z,12.93
2023-02-07T12:57:21.396Z,11.37
2023-02-07T13:00:13.226Z,10.77
2023-02-07T13:02:54.078Z,12.00
2023-02-07T13:05:32.774Z,12.10
2023-02-07T13:08:13.700Z,11.63
2023-02-07T13:10:49.416Z,11.03
2023-02-07T13:13:31.205Z,11.60
2023-02-07T13:16:01.476Z,11.57
2023-02-07T13:18:45.161Z,12.73
2023-02-07T13:21:41.056Z,12.27
2023-02-07T13:24:13.626Z,13.20
2023-02-07T13:27:11.415Z,13.07
2023-02-07T13:29:47.140Z,12.60
2023-02-07T13:32:30.421Z,11.93
2023-02-07T13:35:06.123Z,10.83
2023-02-07T13:38:05.323Z,11.77
2023-02-07T13:41:10.512Z,10.37
2023-02-07T13:43:50.898Z,9.27
2023-02-07T13:46:36.258Z,8.67
2023-02-07T13:49:16.907Z,7.80
2023-02-07T13:52:00.541Z,9.07
2023-02-07T13:54:56.265Z,10.13
2023-02-07T13:57:54.929Z,10.93
2023-02-07T14:00:38.385Z,11.47
2023-02-07T14:03:06.833Z,12.27
2023-02-07T14:05:45.160Z,13.43
2023-02-07T14:08:18.136Z,13.63
2023-02-07T14:10:53.040Z,13.57
2023-02-07T14:13:22.981Z,13.60
2023-02-07T14:16:12.803Z,15.07
2023-02-07T14:18:47.722Z,14.03
2023-02-07T14:21:23.534Z,14.00
2023-02-07T14:24:05.946Z,14.63
2023-02-07T14:26:53.051Z,16.40
2023-02-07T14:29:23.016Z,15.23
2023-02-07T14:32:01.596Z,16.20
2023-02-07T14:34:53.157Z,14.93
2023-02-07T14:37:51.657Z,14.87
2023-02-07T14:41:08.501Z,15.87
2023-02-07T14:44:08.560Z,14.90
2023-02-07T14:46:42.257Z,16.30
2023-02-07T14:49:33.698Z,14.63
2023-02-07T14:52:25.483Z,18.20
2023-02-07T14:55:30.390Z,16.03
2023-02-07T14:58:06.851Z,16.90
2023-02-07T15:00:53.155Z,16.27
2023-02-07T15:03:21.886Z,19.97
2023-02-07T15:05:56.985Z,17.23
2023-02-07T15:08:26.368Z,16.73
2023-02-07T15:11:04.882Z,14.53
2023-02-07T15:13:48.490Z,12.77
2023-02-07T15:16:24.755Z,12.50
2023-02-07T15:18:58.754Z,10.97
2023-02-07T15:21:34.819Z,11.47
2023-02-07T15:24:14.296Z,9.83
2023-02-07T15:26:42.720Z,11.20
2023-02-07T15:29:25.541Z,12.03
2023-02-07T15:31:55.544Z,12.70
2023-02-07T15:34:31.948Z,13.33
2023-02-07T15:37:03.811Z,12.63
2023-02-07T15:39:33.847Z,12.27
2023-02-07T15:42:03.687Z,11.60
2023-02-07T15:44:46.024Z,13.27
2023-02-07T15:47:32.631Z,14.53
2023-02-07T15:50:01.308Z,14.00
2023-02-07T15:52:59.881Z,13.47
2023-02-07T15:55:37.192Z,14.23
2023-02-07T15:58:06.111Z,13.07
2023-02-07T16:00:41.446Z,12.90
2023-02-07T16:03:23.737Z,13.70
2023-02-07T16:06:02.512Z,13.97
2023-02-07T16:08:37.324Z,14.37
2023-02-07T16:11:27.362Z,13.97
2023-02-07T16:14:01.617Z,15.70
2023-02-07T16:17:09.054Z,14.93
2023-02-07T16:19:46.625Z,15.00
2023-02-07T16:22:21.452Z,16.50
2023-02-07T16:24:54.627Z,15.23
2023-02-07T16:27:32.937Z,15.40
2023-02-07T16:30:01.099Z,15.90
2023-02-07T16:32:32.461Z,16.37
2023-02-07T16:35:04.924Z,17.53
2023-02-07T16:37:34.939Z,18.60
2023-02-07T16:40:02.243Z,19.00
2023-02-07T16:42:29.229Z,18.90
2023-02-07T16:44:56.213Z,19.87
2023-02-07T16:47:26.154Z,20.40
2023-02-07T16:49:53.107Z,19.83
2023-02-07T16:52:23.183Z,22.67
2023-02-07T16:54:54.811Z,23.73
2023-02-07T16:57:25.020Z,24.63
2023-02-07T16:59:55.017Z,25.53
2023-02-07T17:02:23.042Z,26.40
2023-02-07T17:04:49.984Z,28.87
2023-02-07T17:07:16.845Z,29.33
2023-02-07T17:09:52.111Z,29.73
2023-02-07T17:12:19.017Z,30.47
2023-02-07T17:14:45.992Z,30.73
2023-02-07T17:17:13.127Z,30.37
2023-02-07T17:19:43.081Z,30.13
2023-02-07T17:22:12.121Z,30.20
2023-02-07T17:24:49.713Z,29.70
2023-02-07T17:27:18.707Z,29.37
2023-02-07T17:29:46.733Z,30.00
2023-02-07T17:32:13.965Z,28.43
2023-02-07T17:34:41.020Z,26.90
2023-02-07T17:37:11.995Z,28.80
2023-02-07T17:39:40.192Z,25.63
2023-02-07T17:42:12.820Z,28.90
2023-02-07T17:44:40.365Z,27.37
2023-02-07T17:47:12.311Z,27.10
2023-02-07T17:49:41.914Z,25.13
2023-02-07T17:52:13.556Z,23.17
2023-02-07T17:54:45.337Z,23.13
2023-02-07T17:57:21.851Z,24.73
2023-02-07T17:59:49.878Z,24.53
2023-02-07T18:02:18.860Z,22.73
2023-02-07T18:04:46.827Z,21.80
2023-02-07T18:07:17.766Z,20.87
2023-02-07T18:09:47.797Z,20.37
2023-02-07T18:12:17.181Z,21.10
2023-02-07T18:14:47.210Z,20.60
2023-02-07T18:17:17.330Z,19.43
2023-02-07T18:19:45.272Z,15.33
2023-02-07T18:22:15.249Z,16.37
2023-02-07T18:24:43.309Z,14.63
2023-02-07T18:27:10.324Z,13.97
2023-02-07T18:29:38.332Z,15.40
2023-02-07T18:32:15.457Z,14.67
2023-02-07T18:34:43.930Z,13.67
2023-02-07T18:37:12.006Z,14.30
2023-02-07T18:39:40.203Z,14.90
2023-02-07T18:42:12.192Z,14.33
2023-02-07T18:44:42.979Z,14.80
2023-02-07T18:47:12.033Z,15.37
2023-02-07T18:49:44.586Z,18.33
2023-02-07T18:52:18.403Z,19.60
2023-02-07T18:54:48.526Z,20.83
2023-02-07T18:57:19.259Z,21.67
2023-02-07T18:59:46.284Z,21.40
2023-02-07T19:02:15.318Z,21.80
2023-02-07T19:04:44.458Z,21.73
2023-02-07T19:07:14.044Z,22.63
2023-02-07T19:09:45.821Z,21.20
2023-02-07T19:12:12.771Z,20.23
2023-02-07T19:14:42.777Z,26.77
2023-02-07T19:17:13.917Z,23.30
2023-02-07T19:19:43.962Z,21.63
2023-02-07T19:22:14.202Z,22.07
2023-02-07T19:24:45.215Z,21.23
2023-02-07T19:27:14.596Z,20.53
2023-02-07T19:29:41.492Z,18.77
2023-02-07T19:32:10.391Z,20.10
2023-02-07T19:34:38.258Z,21.50
2023-02-07T19:37:14.092Z,22.07
2023-02-07T19:39:43.408Z,22.90
2023-02-07T19:42:11.243Z,23.83
2023-02-07T19:44:40.077Z,23.13
2023-02-07T19:47:07.125Z,23.13
2023-02-07T19:49:37.661Z,25.57
2023-02-07T19:52:04.743Z,26.33
2023-02-07T19:54:31.684Z,26.77
2023-02-07T19:56:58.563Z,26.67
2023-02-07T19:59:26.732Z,27.77
2023-02-07T20:01:53.904Z,33.63
2023-02-07T20:04:20.797Z,36.63
2023-02-07T20:06:50.096Z,37.90
2023-02-07T20:09:18.357Z,29.90
2023-02-07T20:11:45.225Z,26.67
2023-02-07T20:14:12.137Z,27.43
2023-02-07T20:16:41.949Z,30.57
2023-02-07T20:19:08.908Z,31.60
2023-02-07T20:21:37.070Z,28.67
2023-02-07T20:24:04.356Z,28.10
2023-02-07T20:26:40.265Z,28.20
2023-02-07T20:29:11.248Z,26.43
2023-02-07T20:31:39.556Z,25.67
2023-02-07T20:34:07.405Z,23.03
2023-02-07T20:36:42.463Z,22.13
2023-02-07T20:39:26.178Z,20.87
2023-02-07T20:41:53.032Z,23.47
2023-02-07T20:44:22.224Z,22.93
2023-02-07T20:46:50.981Z,20.57
2023-02-07T20:49:22.336Z,20.20
2023-02-07T20:51:51.870Z,21.73
2023-02-07T20:54:21.037Z,21.67
2023-02-07T20:56:48.054Z,20.20
2023-02-07T20:59:19.385Z,21.33
2023-02-07T21:01:46.745Z,21.40
2023-02-07T21:04:20.253Z,21.20
2023-02-07T21:06:47.240Z,18.00
2023-02-07T21:09:17.315Z,17.90
2023-02-07T21:11:49.554Z,17.43
2023-02-07T21:14:26.524Z,17.80
2023-02-07T21:16:55.738Z,17.63
2023-02-07T21:19:26.202Z,17.03
2023-02-07T21:21:55.157Z,17.73
2023-02-07T21:24:22.268Z,16.43
2023-02-07T21:26:50.354Z,16.30
2023-02-07T21:29:20.286Z,14.60
2023-02-07T21:31:48.667Z,14.70
2023-02-07T21:34:22.064Z,14.33
2023-02-07T21:36:49.873Z,15.60
2023-02-07T21:39:17.031Z,14.13
2023-02-07T21:41:45.325Z,15.17
2023-02-07T21:44:13.716Z,15.63
2023-02-07T21:46:43.004Z,13.73
2023-02-07T21:49:17.051Z,14.97
2023-02-07T21:51:48.354Z,14.33
2023-02-07T21:54:17.227Z,14.20
2023-02-07T21:56:45.216Z,13.87
2023-02-07T21:59:17.615Z,13.33
2023-02-07T22:01:50.388Z,11.63
2023-02-07T22:04:18.214Z,13.20
2023-02-07T22:06:47.245Z,13.97
2023-02-07T22:09:16.493Z,13.50
2023-02-07T22:11:44.024Z,12.27
2023-02-07T22:14:14.673Z,13.07
2023-02-07T22:16:42.155Z,12.30
2023-02-07T22:19:12.629Z,12.60
2023-02-07T22:21:40.338Z,12.03
2023-02-07T22:24:07.550Z,12.23
2023-02-07T22:26:35.127Z,11.73
2023-02-07T22:29:12.660Z,13.30
2023-02-07T22:31:41.646Z,11.63
2023-02-07T22:34:11.077Z,12.87
2023-02-07T22:36:40.508Z,13.07
2023-02-07T22:39:08.544Z,12.97
2023-02-07T22:41:35.882Z,12.97
2023-02-07T22:44:03.328Z,13.63
2023-02-07T22:46:32.923Z,12.90
2023-02-07T22:49:08.649Z,12.50
2023-02-07T22:51:39.503Z,13.40
2023-02-07T22:54:10.025Z,15.10
2023-02-07T22:56:38.333Z,13.77
2023-02-07T22:59:06.718Z,12.63
2023-02-07T23:01:37.051Z,12.67
2023-02-07T23:04:05.619Z,12.83
2023-02-07T23:06:33.657Z,12.67
2023-02-07T23:09:01.153Z,12.50
2023-02-07T23:11:28.355Z,12.80
2023-02-07T23:13:55.928Z,12.33
2023-02-07T23:16:29.224Z,12.70
2023-02-07T23:18:58.046Z,12.27
2023-02-07T23:21:26.265Z,13.50
2023-02-07T23:23:55.717Z,11.97
2023-02-07T23:26:24.379Z,11.63
2023-02-07T23:28:51.934Z,12.13
2023-02-07T23:31:21.469Z,11.80
2023-02-07T23:33:48.632Z,12.30
2023-02-07T23:36:17.727Z,12.03
2023-02-07T23:38:47.691Z,11.23
2023-02-07T23:41:15.830Z,11.70
2023-02-07T23:43:44.753Z,11.93
2023-02-07T23:46:13.266Z,12.10
2023-02-07T23:48:42.170Z,11.43
2023-02-07T23:51:10.372Z,11.83
2023-02-07T23:53:39.746Z,10.73
2023-02-07T23:56:10.766Z,11.37
2023-02-07T23:58:39.255Z,11.53
